createdAt,value
2018-07-17T00:03:06.442Z,4.50
2018-07-17T00:08:11.186Z,5.10
2018-07-17T00:13:15.827Z,5.90
2018-07-17T00:18:20.683Z,5.43
2018-07-17T00:23:25.037Z,6.70
2018-07-17T00:28:29.742Z,4.93
2018-07-17T00:33:34.368Z,5.10
2018-07-17T00:38:39.162Z,4.90
2018-07-17T00:43:43.832Z,5.17
2018-07-17T00:48:48.534Z,5.47
2018-07-17T00:53:53.172Z,5.73
2018-07-17T00:58:57.864Z,5.80
2018-07-17T01:04:07.621Z,5.60
2018-07-17T01:09:17.540Z,5.93
2018-07-17T01:14:29.341Z,4.40
2018-07-17T01:19:34.052Z,4.23
2018-07-17T01:24:38.687Z,7.00
2018-07-17T01:29:43.363Z,6.00
2018-07-17T01:34:48.083Z,5.13
2018-07-17T01:39:52.685Z,6.83
2018-07-17T01:44:57.325Z,5.33
2018-07-17T01:50:01.988Z,5.40
2018-07-17T01:55:06.635Z,5.13
2018-07-17T02:00:11.387Z,5.93
2018-07-17T02:05:16.106Z,6.10
2018-07-17T02:10:20.747Z,5.37
2018-07-17T02:15:25.388Z,5.37
2018-07-17T02:20:30.087Z,4.80
2018-07-17T02:25:34.714Z,5.40
2018-07-17T02:30:39.409Z,5.60
2018-07-17T02:35:43.792Z,6.27
2018-07-17T02:40:48.458Z,6.03
2018-07-17T02:45:53.098Z,6.30
2018-07-17T02:50:57.708Z,6.73
2018-07-17T02:56:02.387Z,6.40
2018-07-17T03:01:07.398Z,6.10
2018-07-17T03:06:12.023Z,5.40
2018-07-17T03:11:16.658Z,5.17
2018-07-17T03:16:21.314Z,5.10
2018-07-17T03:21:25.952Z,5.80
2018-07-17T03:26:30.818Z,5.97
2018-07-17T03:31:35.439Z,4.80
2018-07-17T03:36:39.739Z,4.97
2018-07-17T03:41:44.458Z,4.87
2018-07-17T03:46:49.125Z,5.00
2018-07-17T03:51:53.798Z,8.53
2018-07-17T03:56:58.735Z,6.30
2018-07-17T04:02:03.368Z,6.97
2018-07-17T04:07:08.041Z,6.70
2018-07-17T04:12:12.801Z,7.47
2018-07-17T04:17:17.561Z,5.80
2018-07-17T04:22:22.786Z,7.63
2018-07-17T04:27:27.811Z,5.60
2018-07-17T04:32:32.533Z,5.70
2018-07-17T04:37:37.196Z,6.50
2018-07-17T04:42:41.896Z,5.27
2018-07-17T04:47:46.558Z,5.57
2018-07-17T04:52:51.276Z,4.80
2018-07-17T04:57:56.405Z,4.73
2018-07-17T05:03:01.170Z,4.87
2018-07-17T05:08:06.253Z,6.70
2018-07-17T05:13:10.939Z,5.47
2018-07-17T05:18:15.761Z,4.83
2018-07-17T05:23:20.655Z,11.03
2018-07-17T05:28:25.388Z,4.70
2018-07-17T05:33:30.159Z,4.50
2018-07-17T05:38:34.749Z,5.67
2018-07-17T05:43:39.385Z,6.20
2018-07-17T05:48:44.113Z,3.60
2018-07-17T05:53:48.836Z,3.77
2018-07-17T05:58:53.515Z,4.10
2018-07-17T06:03:58.263Z,3.73
2018-07-17T06:09:03.063Z,5.93
2018-07-17T06:14:07.820Z,4.73
2018-07-17T06:19:12.527Z,3.70
2018-07-17T06:24:17.270Z,4.53
2018-07-17T06:29:21.634Z,6.20
2018-07-17T06:34:26.339Z,6.20
2018-07-17T06:39:31.009Z,7.37
2018-07-17T06:44:35.702Z,5.13
2018-07-17T06:49:40.426Z,5.43
2018-07-17T06:54:45.104Z,6.50
2018-07-17T06:59:49.834Z,6.17
2018-07-17T07:04:54.521Z,5.73
2018-07-17T07:09:59.189Z,5.70
2018-07-17T07:15:03.837Z,6.07
2018-07-17T07:20:08.725Z,5.43
2018-07-17T07:25:13.389Z,4.23
2018-07-17T07:30:18.113Z,5.10
2018-07-17T07:35:22.788Z,6.93
2018-07-17T07:40:27.511Z,4.67
2018-07-17T07:45:32.275Z,5.20
2018-07-17T07:50:36.885Z,4.33
2018-07-17T07:55:41.885Z,5.17
2018-07-17T08:00:46.519Z,7.33
2018-07-17T08:05:51.382Z,3.67
2018-07-17T08:10:56.169Z,4.10
2018-07-17T08:16:00.878Z,4.27
2018-07-17T08:21:05.504Z,4.70
2018-07-17T08:26:10.220Z,4.10
2018-07-17T08:31:14.701Z,5.00
2018-07-17T08:36:19.658Z,4.77
2018-07-17T08:41:24.392Z,4.47
2018-07-17T08:46:29.067Z,5.03
2018-07-17T08:51:33.808Z,3.80
2018-07-17T08:56:38.446Z,6.10
2018-07-17T09:01:43.099Z,4.53
2018-07-17T09:06:47.980Z,4.20
2018-07-17T09:11:52.710Z,3.53
2018-07-17T09:16:57.496Z,3.43
2018-07-17T09:22:02.330Z,5.50
2018-07-17T09:27:07.106Z,3.37
2018-07-17T09:32:11.828Z,4.20
2018-07-17T09:37:16.700Z,3.20
2018-07-17T09:42:21.264Z,4.40
2018-07-17T09:47:26.016Z,3.93
2018-07-17T09:52:30.727Z,4.20
2018-07-17T09:57:35.398Z,6.53
2018-07-17T10:02:40.099Z,4.10
2018-07-17T10:07:44.888Z,3.20
2018-07-17T10:12:49.565Z,3.07
2018-07-17T10:17:54.218Z,5.57
2018-07-17T10:22:59.427Z,3.67
2018-07-17T10:28:04.085Z,4.93
2018-07-17T10:33:08.750Z,3.23
2018-07-17T10:38:13.686Z,4.60
2018-07-17T10:43:18.359Z,4.23
2018-07-17T10:48:23.046Z,5.70
2018-07-17T10:53:27.660Z,4.97
2018-07-17T10:58:32.325Z,3.47
2018-07-17T11:03:37.048Z,2.70
2018-07-17T11:08:41.784Z,3.17
2018-07-17T11:13:46.856Z,4.00
2018-07-17T11:18:51.561Z,2.43
2018-07-17T11:23:56.291Z,2.23
2018-07-17T11:29:00.943Z,4.37
2018-07-17T11:34:05.717Z,2.63
2018-07-17T11:39:10.476Z,2.53
2018-07-17T11:44:15.203Z,2.70
2018-07-17T11:49:19.888Z,5.67
2018-07-17T11:54:24.635Z,2.63
2018-07-17T11:59:29.498Z,6.50
2018-07-17T12:04:34.049Z,4.57
2018-07-17T12:09:38.762Z,3.60
2018-07-17T12:14:43.473Z,3.37
2018-07-17T12:19:48.275Z,2.30
2018-07-17T12:24:52.920Z,4.03
2018-07-17T12:29:57.268Z,2.20
2018-07-17T12:35:02.913Z,2.80
2018-07-17T12:40:07.835Z,3.13
2018-07-17T12:45:12.633Z,2.10
2018-07-17T12:50:17.556Z,4.10
2018-07-17T12:55:22.334Z,5.37
2018-07-17T13:00:27.033Z,2.63
2018-07-17T13:05:31.905Z,4.10
2018-07-17T13:10:36.560Z,2.50
2018-07-17T13:15:41.366Z,2.40
2018-07-17T13:20:45.997Z,2.77
2018-07-17T13:25:50.729Z,2.47
2018-07-17T13:30:55.363Z,4.37
2018-07-17T13:36:00.134Z,3.10
2018-07-17T13:41:04.939Z,3.60
2018-07-17T13:46:10.236Z,2.80
2018-07-17T13:51:14.955Z,5.13
2018-07-17T13:56:19.722Z,3.97
2018-07-17T14:01:24.359Z,3.17
2018-07-17T14:06:29.147Z,3.00
2018-07-17T14:11:33.909Z,3.63
2018-07-17T14:16:38.760Z,4.00
2018-07-17T14:21:43.461Z,4.13
2018-07-17T14:26:48.257Z,2.70
2018-07-17T14:31:53.006Z,3.50
2018-07-17T14:36:57.779Z,3.17
2018-07-17T14:42:02.512Z,1.87
2018-07-17T14:47:07.222Z,1.93
2018-07-17T14:52:12.365Z,3.20
2018-07-17T14:57:17.067Z,1.80
2018-07-17T15:02:21.883Z,2.07
2018-07-17T15:07:26.700Z,1.83
2018-07-17T15:12:30.997Z,2.40
2018-07-17T15:17:35.739Z,2.20
2018-07-17T15:22:40.498Z,4.40
2018-07-17T15:27:45.215Z,3.67
2018-07-17T15:32:49.887Z,4.37
2018-07-17T15:37:54.664Z,2.33
2018-07-17T15:42:59.407Z,2.57
2018-07-17T15:48:04.384Z,2.80
2018-07-17T15:53:09.196Z,3.53
2018-07-17T15:58:13.924Z,2.30
2018-07-17T16:03:18.650Z,3.33
2018-07-17T16:08:23.626Z,3.43
2018-07-17T16:13:28.485Z,4.23
2018-07-17T16:18:33.152Z,2.67
2018-07-17T16:23:37.945Z,3.70
2018-07-17T16:28:43.596Z,2.43
2018-07-17T16:33:48.296Z,2.17
2018-07-17T16:38:53.538Z,3.33
2018-07-17T16:43:58.260Z,2.70
2018-07-17T16:49:03.072Z,3.27
2018-07-17T16:54:07.910Z,3.40
2018-07-17T16:59:12.826Z,3.10
2018-07-17T17:04:17.662Z,3.90
2018-07-17T17:09:22.081Z,5.13
2018-07-17T17:14:27.646Z,5.43
2018-07-17T17:19:32.418Z,2.87
2018-07-17T17:24:37.620Z,3.73
2018-07-17T17:29:42.404Z,5.00
2018-07-17T17:34:47.174Z,3.47
2018-07-17T17:39:52.061Z,4.00
2018-07-17T17:44:56.809Z,2.77
2018-07-17T17:50:01.744Z,3.50
2018-07-17T17:55:06.665Z,3.23
2018-07-17T18:00:11.605Z,3.40
2018-07-17T18:05:16.134Z,6.13
2018-07-17T18:10:21.038Z,8.87
2018-07-17T18:15:25.804Z,3.00
2018-07-17T18:20:30.627Z,3.10
2018-07-17T18:25:36.397Z,3.53
2018-07-17T18:30:41.345Z,3.87
2018-07-17T18:35:46.276Z,4.77
2018-07-17T18:40:51.213Z,3.57
2018-07-17T18:45:56.036Z,3.37
2018-07-17T18:51:01.383Z,3.00
2018-07-17T18:56:06.425Z,4.93
2018-07-17T19:01:11.201Z,3.97
2018-07-17T19:06:16.263Z,4.63
2018-07-17T19:11:21.281Z,5.03
2018-07-17T19:16:26.286Z,3.77
2018-07-17T19:21:31.206Z,5.40
2018-07-17T19:26:36.850Z,7.50
2018-07-17T19:31:42.297Z,7.03
2018-07-17T19:36:47.558Z,5.17
2018-07-17T19:41:52.498Z,5.03
2018-07-17T19:46:58.457Z,4.63
2018-07-17T19:52:04.170Z,4.10
2018-07-17T19:57:10.192Z,4.93
2018-07-17T20:02:14.962Z,5.07
2018-07-17T20:07:19.724Z,8.87
2018-07-17T20:12:24.836Z,6.53
2018-07-17T20:17:29.674Z,6.67
2018-07-17T20:22:34.686Z,6.47
2018-07-17T20:27:39.428Z,6.73
2018-07-17T20:32:44.406Z,7.00
2018-07-17T20:37:51.246Z,6.03
2018-07-17T20:42:55.960Z,7.77
2018-07-17T20:48:00.747Z,7.50
2018-07-17T20:53:06.342Z,6.90
2018-07-17T20:58:11.096Z,6.53
2018-07-17T21:03:15.886Z,6.77
2018-07-17T21:08:20.754Z,7.53
2018-07-17T21:13:25.549Z,5.90
2018-07-17T21:18:30.309Z,5.90
2018-07-17T21:23:35.030Z,6.77
2018-07-17T21:28:39.799Z,7.20
2018-07-17T21:33:44.596Z,7.83
2018-07-17T21:38:49.451Z,9.73
2018-07-17T21:43:54.170Z,8.17
2018-07-17T21:48:58.919Z,8.10
2018-07-17T21:54:03.758Z,8.60
2018-07-17T21:59:08.596Z,8.10
2018-07-17T22:04:13.341Z,8.23
2018-07-17T22:09:18.257Z,8.33
2018-07-17T22:14:23.108Z,7.70
2018-07-17T22:19:27.885Z,7.80
2018-07-17T22:24:32.729Z,7.70
2018-07-17T22:29:37.524Z,8.37
2018-07-17T22:34:42.197Z,7.97
2018-07-17T22:39:46.888Z,7.87
2018-07-17T22:44:51.603Z,8.40
2018-07-17T22:49:56.815Z,7.90
2018-07-17T22:55:01.657Z,7.80
2018-07-17T23:00:07.419Z,8.40
2018-07-17T23:05:12.117Z,8.17
2018-07-17T23:10:16.955Z,7.67
2018-07-17T23:15:21.843Z,8.83
2018-07-17T23:20:26.471Z,7.93
2018-07-17T23:25:32.543Z,8.43
2018-07-17T23:30:37.501Z,7.20
2018-07-17T23:35:42.331Z,7.33
2018-07-17T23:40:47.240Z,8.97
2018-07-17T23:45:52.051Z,8.10
2018-07-17T23:50:56.978Z,9.00
2018-07-17T23:56:02.030Z,8.13
